Terminal Aerodrome Forecast
Issued by NWS

Home | Current Version | Previous Version | Text Only | Print | Product List | Glossary On
Versions: 1 2 3 4 5 6 7 8 9 10 11 12 13 14 15 16
000
FTUS45 KREV 282300
TAFMMH
TAF
KMMH 282323Z 2900/2924 13008KT P6SM FEW200
     FM290200 VRB04KT P6SM SCT060 BKN200
     FM291900 14007KT P6SM SCT060 BKN200
      AMD NOT SKED 2902/2914=

USA.gov is the U.S. government's official web portal to all federal, state and local government web resources and services.